createdAt,value
2023-01-21T00:03:06.149Z,86.37
2023-01-21T00:06:15.301Z,85.96
2023-01-21T00:09:23.386Z,86.04
2023-01-21T00:12:32.850Z,86.59
2023-01-21T00:15:41.028Z,86.59
2023-01-21T00:18:49.641Z,85.74
2023-01-21T00:21:57.916Z,86.45
2023-01-21T00:25:07.296Z,85.68
2023-01-21T00:28:17.215Z,85.70
2023-01-21T00:31:27.843Z,84.72
2023-01-21T00:34:36.218Z,85.27
2023-01-21T00:37:44.394Z,86.11
2023-01-21T00:40:52.623Z,86.71
2023-01-21T00:44:02.053Z,85.65
2023-01-21T00:47:10.294Z,85.88
2023-01-21T00:50:18.987Z,86.14
2023-01-21T00:53:27.841Z,85.45
2023-01-21T00:56:35.968Z,85.63
2023-01-21T00:59:45.643Z,85.52
2023-01-21T01:02:53.867Z,86.01
2023-01-21T01:06:07.997Z,84.87
2023-01-21T01:09:16.108Z,85.74
2023-01-21T01:12:24.201Z,85.98
2023-01-21T01:15:33.637Z,84.92
2023-01-21T01:18:42.006Z,85.49
2023-01-21T01:21:50.345Z,85.76
2023-01-21T01:24:58.416Z,85.09
2023-01-21T01:28:07.022Z,84.53
2023-01-21T01:31:19.562Z,84.41
2023-01-21T01:34:27.686Z,83.86
2023-01-21T01:37:35.740Z,84.36
2023-01-21T01:40:45.360Z,83.79
2023-01-21T01:43:59.065Z,84.31
2023-01-21T01:47:08.673Z,85.00
2023-01-21T01:50:20.933Z,85.38
2023-01-21T01:53:31.929Z,85.38
2023-01-21T01:56:46.031Z,85.04
2023-01-21T01:59:54.122Z,86.13
2023-01-21T02:03:22.310Z,85.56
2023-01-21T02:06:30.439Z,84.69
2023-01-21T02:09:38.715Z,85.16
2023-01-21T02:12:47.349Z,84.91
2023-01-21T02:16:47.353Z,86.05
2023-01-21T02:20:36.801Z,85.58
2023-01-21T02:24:30.143Z,85.52
2023-01-21T02:27:49.681Z,85.43
2023-01-21T02:31:25.618Z,85.18
2023-01-21T02:34:44.699Z,85.97
2023-01-21T02:38:02.444Z,85.44
2023-01-21T02:41:24.309Z,84.70
2023-01-21T02:44:40.566Z,85.04
2023-01-21T02:48:05.941Z,85.89
2023-01-21T02:51:15.471Z,84.12
2023-01-21T02:54:54.909Z,85.30
2023-01-21T02:58:09.084Z,85.36
2023-01-21T03:01:32.499Z,85.15
2023-01-21T03:04:58.901Z,85.29
2023-01-21T03:08:18.746Z,84.02
2023-01-21T03:11:27.548Z,85.01
2023-01-21T03:15:05.694Z,84.48
2023-01-21T03:18:24.874Z,84.54
2023-01-21T03:21:36.441Z,85.34
2023-01-21T03:24:52.469Z,85.48
2023-01-21T03:28:07.310Z,86.13
2023-01-21T03:31:21.969Z,85.85
2023-01-21T03:34:36.953Z,86.37
2023-01-21T03:37:53.865Z,85.37
2023-01-21T03:41:13.295Z,85.25
2023-01-21T03:44:21.911Z,85.85
2023-01-21T03:47:35.833Z,84.97
2023-01-21T03:50:53.392Z,84.84
2023-01-21T03:54:02.207Z,84.49
2023-01-21T03:57:11.622Z,85.17
2023-01-21T04:00:20.615Z,86.01
2023-01-21T04:03:28.781Z,85.57
2023-01-21T04:06:37.852Z,86.00
2023-01-21T04:09:46.389Z,85.84
2023-01-21T04:12:55.891Z,85.59
2023-01-21T04:16:04.361Z,85.70
2023-01-21T04:22:33.411Z,86.82
2023-01-21T04:25:41.515Z,86.00
2023-01-21T04:28:49.606Z,85.83
2023-01-21T04:31:57.784Z,86.50
2023-01-21T04:35:07.087Z,85.06
2023-01-21T04:38:16.758Z,84.40
2023-01-21T04:41:25.625Z,84.25
2023-01-21T04:44:33.827Z,85.38
2023-01-21T04:47:43.469Z,85.28
2023-01-21T04:50:51.785Z,86.15
2023-01-21T04:54:01.284Z,86.35
2023-01-21T04:57:10.780Z,86.56
2023-01-21T05:00:19.991Z,85.34
2023-01-21T05:03:28.681Z,86.13
2023-01-21T05:06:36.969Z,85.29
2023-01-21T05:09:46.485Z,85.93
2023-01-21T05:12:54.631Z,86.42
2023-01-21T05:16:05.763Z,86.77
2023-01-21T05:19:14.003Z,86.29
2023-01-21T05:22:22.334Z,87.01
2023-01-21T05:25:32.139Z,86.28
2023-01-21T05:28:40.280Z,86.25
2023-01-21T05:31:48.455Z,86.25
2023-01-21T05:34:56.600Z,86.66
2023-01-21T05:38:04.777Z,85.85
2023-01-21T05:41:14.279Z,86.40
2023-01-21T05:44:22.644Z,85.89
2023-01-21T05:47:30.768Z,86.19
2023-01-21T05:50:39.689Z,85.61
2023-01-21T05:53:47.826Z,86.33
2023-01-21T05:56:57.364Z,86.59
2023-01-21T06:00:07.521Z,85.13
2023-01-21T06:03:16.324Z,85.51
2023-01-21T06:06:24.482Z,85.17
2023-01-21T06:09:32.658Z,85.91
2023-01-21T06:12:42.127Z,85.17
2023-01-21T06:15:50.363Z,85.04
2023-01-21T06:18:58.715Z,84.53
2023-01-21T06:22:06.889Z,85.13
2023-01-21T06:25:15.292Z,84.99
2023-01-21T06:28:24.796Z,83.64
2023-01-21T06:31:33.083Z,83.68
2023-01-21T06:34:41.232Z,83.73
2023-01-21T06:37:49.439Z,84.69
2023-01-21T06:40:57.664Z,84.32
2023-01-21T06:44:08.212Z,83.55
2023-01-21T06:47:16.642Z,83.70
2023-01-21T06:50:24.927Z,83.82
2023-01-21T06:53:33.086Z,83.81
2023-01-21T06:56:43.712Z,82.97
2023-01-21T06:59:53.177Z,84.70
2023-01-21T07:03:01.897Z,83.72
2023-01-21T07:06:10.362Z,83.92
2023-01-21T07:09:18.780Z,83.88
2023-01-21T07:12:26.995Z,83.95
2023-01-21T07:15:36.673Z,84.34
2023-01-21T07:18:44.941Z,84.03
2023-01-21T07:21:54.268Z,84.63
2023-01-21T07:25:02.732Z,85.14
2023-01-21T07:28:11.009Z,85.44
2023-01-21T07:31:20.788Z,84.23
2023-01-21T07:34:29.255Z,84.56
2023-01-21T07:37:37.426Z,84.08
2023-01-21T07:40:48.457Z,84.85
2023-01-21T07:43:56.662Z,84.43
2023-01-21T07:47:06.474Z,84.05
2023-01-21T07:50:14.871Z,83.96
2023-01-21T07:53:23.109Z,83.99
2023-01-21T07:56:31.382Z,83.94
2023-01-21T07:59:39.543Z,83.16
2023-01-21T08:02:53.969Z,84.20
2023-01-21T08:06:02.409Z,84.75
2023-01-21T08:09:11.288Z,84.28
2023-01-21T08:12:19.630Z,84.89
2023-01-21T08:15:27.792Z,82.77
2023-01-21T08:18:37.286Z,83.57
2023-01-21T08:21:45.704Z,84.06
2023-01-21T08:24:53.814Z,84.27
2023-01-21T08:28:02.277Z,84.48
2023-01-21T08:31:14.330Z,84.25
2023-01-21T08:34:24.004Z,83.98
2023-01-21T08:37:32.104Z,84.15
2023-01-21T08:40:40.257Z,83.52
2023-01-21T08:43:48.574Z,83.52
2023-01-21T08:46:57.125Z,84.05
2023-01-21T08:50:09.521Z,84.39
2023-01-21T08:53:17.862Z,82.77
2023-01-21T08:56:26.182Z,84.12
2023-01-21T08:59:34.959Z,83.37
2023-01-21T09:02:43.254Z,84.14
2023-01-21T09:05:53.002Z,83.70
2023-01-21T09:09:01.637Z,83.93
2023-01-21T09:12:10.224Z,84.61
2023-01-21T09:15:18.640Z,83.68
2023-01-21T09:18:27.487Z,83.81
2023-01-21T09:21:37.870Z,84.18
2023-01-21T09:24:46.041Z,84.37
2023-01-21T09:27:54.175Z,83.87
2023-01-21T09:31:05.850Z,84.39
2023-01-21T09:34:14.006Z,84.16
2023-01-21T09:37:23.417Z,83.89
2023-01-21T09:40:32.155Z,82.91
2023-01-21T09:43:46.186Z,83.82
2023-01-21T09:47:02.063Z,83.68
2023-01-21T09:50:16.648Z,83.80
2023-01-21T09:53:37.994Z,82.85
2023-01-21T09:57:06.451Z,83.02
2023-01-21T10:00:34.314Z,83.34
2023-01-21T10:03:51.377Z,84.02
2023-01-21T10:07:05.087Z,82.81
2023-01-21T10:10:22.873Z,82.82
2023-01-21T10:13:50.813Z,83.64
2023-01-21T10:17:10.352Z,83.13
2023-01-21T10:20:25.568Z,83.61
2023-01-21T10:23:42.683Z,82.75
2023-01-21T10:26:55.451Z,82.87
2023-01-21T10:30:14.653Z,83.14
2023-01-21T10:33:25.609Z,82.83
2023-01-21T10:37:03.891Z,83.12
2023-01-21T10:40:42.751Z,83.32
2023-01-21T10:44:06.893Z,82.04
2023-01-21T10:47:29.698Z,81.71
2023-01-21T10:50:54.468Z,80.48
2023-01-21T10:54:15.062Z,81.92
2023-01-21T10:57:54.448Z,81.64
2023-01-21T11:01:09.122Z,80.99
2023-01-21T11:04:21.425Z,81.79
2023-01-21T11:07:42.327Z,81.90
2023-01-21T11:10:55.274Z,80.23
2023-01-21T11:14:03.942Z,81.01
2023-01-21T11:17:13.678Z,81.92
2023-01-21T11:20:29.348Z,82.37
2023-01-21T11:23:40.128Z,82.79
2023-01-21T11:26:54.578Z,81.51
2023-01-21T11:30:10.092Z,81.08
2023-01-21T11:33:28.720Z,82.16
2023-01-21T11:36:36.873Z,81.79
2023-01-21T11:39:56.226Z,82.31
2023-01-21T11:43:05.717Z,81.91
2023-01-21T11:46:36.601Z,82.38
2023-01-21T11:49:49.511Z,81.76
2023-01-21T11:53:14.233Z,82.15
2023-01-21T11:56:22.513Z,82.55
2023-01-21T11:59:35.589Z,82.22
2023-01-21T12:02:48.757Z,80.75
2023-01-21T12:06:02.620Z,79.42
2023-01-21T12:09:20.604Z,81.31
2023-01-21T12:12:46.739Z,82.07
2023-01-21T12:16:25.011Z,82.39
2023-01-21T12:19:52.523Z,81.96
2023-01-21T12:23:30.341Z,81.79
2023-01-21T12:26:45.696Z,81.79
2023-01-21T12:30:14.364Z,80.37
2023-01-21T12:33:45.880Z,81.23
2023-01-21T12:37:04.836Z,80.84
2023-01-21T12:40:21.062Z,81.32
2023-01-21T12:43:36.274Z,82.11
2023-01-21T12:46:49.083Z,81.29
2023-01-21T12:50:25.765Z,81.36
2023-01-21T12:53:44.534Z,80.65
2023-01-21T12:57:04.265Z,80.11
2023-01-21T13:00:21.646Z,79.73
2023-01-21T13:03:44.154Z,79.63
2023-01-21T13:07:03.554Z,77.99
2023-01-21T13:10:20.973Z,79.52
2023-01-21T13:13:37.015Z,79.74
2023-01-21T13:16:53.997Z,81.03
2023-01-21T13:20:13.266Z,81.87
2023-01-21T13:23:33.012Z,81.25
2023-01-21T13:26:51.929Z,82.45
2023-01-21T13:30:14.998Z,82.91
2023-01-21T13:33:41.765Z,83.11
2023-01-21T13:37:09.620Z,82.16
2023-01-21T13:40:41.161Z,83.16
2023-01-21T13:44:15.716Z,83.14
2023-01-21T13:47:55.701Z,83.59
2023-01-21T13:51:25.988Z,84.31
2023-01-21T13:54:59.661Z,84.12
2023-01-21T13:58:14.534Z,83.79
2023-01-21T14:01:32.041Z,82.98
2023-01-21T14:04:50.197Z,82.91
2023-01-21T14:08:07.843Z,82.22
2023-01-21T14:11:24.690Z,82.75
2023-01-21T14:15:12.057Z,82.89
2023-01-21T14:18:47.182Z,84.41
2023-01-21T14:22:29.276Z,82.82
2023-01-21T14:26:03.856Z,83.03
2023-01-21T14:29:24.571Z,83.91
2023-01-21T14:32:41.742Z,83.61
2023-01-21T14:36:04.189Z,83.00
2023-01-21T14:39:36.172Z,82.82
2023-01-21T14:42:49.072Z,83.26
2023-01-21T14:45:59.780Z,81.86
2023-01-21T14:49:12.579Z,81.22
2023-01-21T14:52:28.847Z,81.64
2023-01-21T14:55:39.826Z,82.79
2023-01-21T14:58:51.194Z,82.67
2023-01-21T15:02:02.223Z,83.89
2023-01-21T15:05:25.610Z,83.87
2023-01-21T15:08:46.149Z,84.95
2023-01-21T15:12:01.243Z,84.63
2023-01-21T15:15:31.012Z,84.12
2023-01-21T15:18:44.034Z,84.56
2023-01-21T15:22:24.385Z,84.48
2023-01-21T15:25:34.337Z,84.10
2023-01-21T15:28:45.992Z,84.79
2023-01-21T15:31:54.639Z,83.90
2023-01-21T15:35:16.087Z,83.28
2023-01-21T15:38:27.099Z,84.24
2023-01-21T15:41:59.888Z,83.40
2023-01-21T15:45:27.416Z,83.26
2023-01-21T15:49:37.590Z,84.92
2023-01-21T15:53:14.902Z,84.34
2023-01-21T15:56:55.809Z,85.18
2023-01-21T16:00:38.970Z,86.16
2023-01-21T16:04:13.512Z,86.36
2023-01-21T16:07:39.505Z,85.78
2023-01-21T16:11:03.445Z,85.68
2023-01-21T16:14:33.721Z,85.46
2023-01-21T16:18:04.194Z,85.69
2023-01-21T16:21:13.594Z,86.29
2023-01-21T16:24:29.405Z,85.65
2023-01-21T16:27:37.585Z,85.10
2023-01-21T16:30:55.824Z,84.55
2023-01-21T16:34:05.533Z,85.22
2023-01-21T16:37:17.761Z,84.85
2023-01-21T16:40:30.891Z,85.33
2023-01-21T16:43:46.424Z,86.00
2023-01-21T16:46:54.811Z,86.20
2023-01-21T16:50:06.387Z,85.92
2023-01-21T16:53:19.066Z,85.73
2023-01-21T16:56:30.405Z,85.67
2023-01-21T16:59:41.899Z,86.54
2023-01-21T17:02:50.539Z,85.78
2023-01-21T17:06:04.306Z,85.85
2023-01-21T17:09:26.927Z,86.28
2023-01-21T17:12:36.530Z,86.17
2023-01-21T17:15:57.345Z,85.88
2023-01-21T17:19:18.308Z,84.79
2023-01-21T17:22:34.401Z,84.81
2023-01-21T17:25:43.779Z,85.37
2023-01-21T17:28:57.663Z,86.15
2023-01-21T17:32:08.394Z,85.58
2023-01-21T17:35:23.393Z,86.38
2023-01-21T17:38:39.575Z,86.84
2023-01-21T17:41:47.917Z,86.18
2023-01-21T17:44:59.953Z,86.78
2023-01-21T17:48:19.687Z,86.14
2023-01-21T17:51:30.725Z,85.40
2023-01-21T17:54:40.540Z,86.22
2023-01-21T17:57:48.890Z,86.06
2023-01-21T18:00:57.197Z,85.87
2023-01-21T18:04:05.698Z,86.00
2023-01-21T18:07:24.033Z,85.74
2023-01-21T18:10:33.865Z,85.40
2023-01-21T18:13:42.117Z,85.03
2023-01-21T18:16:52.864Z,85.31
2023-01-21T18:20:01.040Z,85.54
2023-01-21T18:23:12.565Z,85.13
2023-01-21T18:26:34.096Z,85.56
2023-01-21T18:29:42.812Z,85.08
2023-01-21T18:32:51.296Z,85.98
2023-01-21T18:35:59.809Z,86.06
2023-01-21T18:39:13.798Z,86.57
2023-01-21T18:42:23.605Z,86.61
2023-01-21T18:45:31.974Z,87.06
2023-01-21T18:48:40.239Z,86.14
2023-01-21T18:51:48.931Z,86.91
2023-01-21T18:54:58.177Z,85.70
2023-01-21T18:58:14.999Z,87.47
2023-01-21T19:01:24.801Z,87.31
2023-01-21T19:04:33.166Z,87.40
2023-01-21T19:07:42.237Z,87.97
2023-01-21T19:10:50.597Z,87.26
2023-01-21T19:14:00.312Z,86.90
2023-01-21T19:17:13.703Z,87.00
2023-01-21T19:20:24.562Z,86.23
2023-01-21T19:23:32.880Z,86.17
2023-01-21T19:26:41.259Z,86.07
2023-01-21T19:29:51.279Z,85.91
2023-01-21T19:33:01.913Z,86.51
2023-01-21T19:36:16.419Z,85.53
2023-01-21T19:39:25.343Z,85.85
2023-01-21T19:42:34.194Z,86.70
2023-01-21T19:45:45.196Z,85.82
2023-01-21T19:48:53.748Z,86.40
2023-01-21T19:52:02.631Z,85.31
2023-01-21T19:55:16.350Z,85.32
2023-01-21T19:58:29.205Z,86.41
2023-01-21T20:01:39.945Z,85.85
2023-01-21T20:04:48.442Z,85.84
2023-01-21T20:07:57.652Z,85.32
2023-01-21T20:11:06.406Z,86.33
2023-01-21T20:14:14.550Z,86.40
2023-01-21T20:17:24.659Z,86.08
2023-01-21T20:20:34.689Z,85.66
2023-01-21T20:23:43.410Z,85.91
2023-01-21T20:26:51.959Z,85.85
2023-01-21T20:30:26.562Z,85.08
2023-01-21T20:33:29.811Z,86.19
2023-01-21T20:36:39.572Z,85.29
2023-01-21T20:39:47.939Z,85.58
2023-01-21T20:42:57.775Z,85.73
2023-01-21T20:46:13.429Z,84.99
2023-01-21T20:49:23.072Z,85.42
2023-01-21T20:52:31.435Z,85.50
2023-01-21T20:55:40.313Z,86.14
2023-01-21T20:58:49.526Z,85.41
2023-01-21T21:01:58.723Z,86.03
2023-01-21T21:05:10.117Z,85.23
2023-01-21T21:08:22.418Z,85.38
2023-01-21T21:11:30.756Z,85.92
2023-01-21T21:14:38.885Z,85.30
2023-01-21T21:17:48.153Z,84.92
2023-01-21T21:20:57.678Z,85.63
2023-01-21T21:24:07.699Z,85.65
2023-01-21T21:27:17.005Z,84.92
2023-01-21T21:30:30.055Z,85.37
2023-01-21T21:33:38.902Z,84.90
2023-01-21T21:36:48.652Z,84.57
2023-01-21T21:39:56.876Z,84.81
2023-01-21T21:43:23.396Z,84.53
2023-01-21T21:46:49.081Z,85.06
2023-01-21T21:49:57.412Z,85.13
2023-01-21T21:53:08.276Z,85.56
2023-01-21T21:56:18.879Z,85.74
2023-01-21T21:59:27.249Z,84.66
2023-01-21T22:02:35.789Z,85.20
2023-01-21T22:05:57.805Z,85.59
2023-01-21T22:09:08.691Z,85.73
2023-01-21T22:12:17.062Z,85.25
2023-01-21T22:15:25.313Z,86.00
2023-01-21T22:18:36.152Z,85.79
2023-01-21T22:21:44.319Z,85.65
2023-01-21T22:24:54.872Z,85.20
2023-01-21T22:28:03.157Z,85.77
2023-01-21T22:31:15.169Z,85.14
2023-01-21T22:34:23.506Z,84.38
2023-01-21T22:37:31.672Z,84.39
2023-01-21T22:40:41.216Z,84.21
2023-01-21T22:43:50.744Z,84.04
2023-01-21T22:46:58.932Z,83.22
2023-01-21T22:50:08.543Z,83.97
2023-01-21T22:53:16.642Z,84.91
2023-01-21T22:56:49.630Z,84.28
2023-01-21T22:59:55.695Z,83.79
2023-01-21T23:03:03.935Z,83.79
2023-01-21T23:06:12.426Z,83.56
2023-01-21T23:09:20.763Z,84.04
2023-01-21T23:12:30.503Z,83.30
2023-01-21T23:15:43.995Z,84.30
2023-01-21T23:18:52.343Z,83.85
2023-01-21T23:22:00.748Z,83.58
2023-01-21T23:25:10.263Z,83.65
2023-01-21T23:28:20.127Z,83.07
2023-01-21T23:31:28.490Z,83.72
2023-01-21T23:34:36.929Z,83.36
2023-01-21T23:37:44.979Z,83.26
2023-01-21T23:40:53.142Z,82.86
2023-01-21T23:44:03.264Z,82.46
2023-01-21T23:47:12.002Z,82.87
2023-01-21T23:50:20.428Z,83.87
2023-01-21T23:53:28.998Z,83.54
2023-01-21T23:56:37.964Z,83.13
2023-01-21T23:59:47.866Z,82.23
